sensor_id;sensor_type;location;lat;lon;timestamp;P1;durP1;ratioP1;P2;durP2;ratioP2
38591;SDS011;24356;48.460;11.450;2023-07-29T00:00:41;5.57;;;3.13;;
38591;SDS011;24356;48.460;11.450;2023-07-29T00:03:07;6.85;;;3.50;;
38591;SDS011;24356;48.460;11.450;2023-07-29T00:05:34;3.25;;;2.58;;
38591;SDS011;24356;48.460;11.450;2023-07-29T00:08:01;5.57;;;2.95;;
38591;SDS011;24356;48.460;11.450;2023-07-29T00:10:29;4.18;;;3.20;;
38591;SDS011;24356;48.460;11.450;2023-07-29T00:12:56;4.30;;;3.00;;
38591;SDS011;24356;48.460;11.450;2023-07-29T00:15:22;5.22;;;3.05;;
38591;SDS011;24356;48.460;11.450;2023-07-29T00:17:47;3.33;;;2.63;;
38591;SDS011;24356;48.460;11.450;2023-07-29T00:20:13;6.03;;;2.50;;
38591;SDS011;24356;48.460;11.450;2023-07-29T00:22:38;4.10;;;2.40;;
38591;SDS011;24356;48.460;11.450;2023-07-29T00:25:04;3.75;;;2.67;;
38591;SDS011;24356;48.460;11.450;2023-07-29T00:27:31;4.60;;;2.70;;
38591;SDS011;24356;48.460;11.450;2023-07-29T00:29:57;5.22;;;2.70;;
38591;SDS011;24356;48.460;11.450;2023-07-29T00:32:22;3.95;;;2.80;;
38591;SDS011;24356;48.460;11.450;2023-07-29T00:34:48;4.55;;;2.80;;
38591;SDS011;24356;48.460;11.450;2023-07-29T00:37:15;5.45;;;2.65;;
38591;SDS011;24356;48.460;11.450;2023-07-29T00:39:40;5.30;;;2.45;;
38591;SDS011;24356;48.460;11.450;2023-07-29T00:42:06;4.43;;;2.65;;
38591;SDS011;24356;48.460;11.450;2023-07-29T00:44:32;5.85;;;2.83;;
38591;SDS011;24356;48.460;11.450;2023-07-29T00:46:58;4.72;;;2.75;;
38591;SDS011;24356;48.460;11.450;2023-07-29T00:49:25;5.60;;;2.67;;
38591;SDS011;24356;48.460;11.450;2023-07-29T00:51:51;5.07;;;2.63;;
38591;SDS011;24356;48.460;11.450;2023-07-29T00:54:17;3.40;;;2.60;;
38591;SDS011;24356;48.460;11.450;2023-07-29T00:56:42;7.13;;;2.80;;
38591;SDS011;24356;48.460;11.450;2023-07-29T00:59:09;6.47;;;2.58;;
38591;SDS011;24356;48.460;11.450;2023-07-29T01:01:34;5.07;;;2.97;;
38591;SDS011;24356;48.460;11.450;2023-07-29T01:04:00;3.25;;;2.70;;
38591;SDS011;24356;48.460;11.450;2023-07-29T01:12:09;5.70;;;3.10;;
38591;SDS011;24356;48.460;11.450;2023-07-29T01:17:59;3.28;;;2.42;;
38591;SDS011;24356;48.460;11.450;2023-07-29T01:20:29;6.93;;;2.90;;
38591;SDS011;24356;48.460;11.450;2023-07-29T01:22:58;7.68;;;2.83;;
38591;SDS011;24356;48.460;11.450;2023-07-29T01:25:24;4.75;;;2.45;;
38591;SDS011;24356;48.460;11.450;2023-07-29T01:27:49;5.20;;;2.53;;
38591;SDS011;24356;48.460;11.450;2023-07-29T01:30:16;4.85;;;2.65;;
38591;SDS011;24356;48.460;11.450;2023-07-29T01:33:26;6.90;;;2.83;;
38591;SDS011;24356;48.460;11.450;2023-07-29T01:38:18;4.68;;;2.97;;
38591;SDS011;24356;48.460;11.450;2023-07-29T01:40:56;3.85;;;2.33;;
38591;SDS011;24356;48.460;11.450;2023-07-29T01:43:26;3.25;;;2.45;;
38591;SDS011;24356;48.460;11.450;2023-07-29T01:45:53;4.50;;;2.60;;
38591;SDS011;24356;48.460;11.450;2023-07-29T01:48:19;5.82;;;2.40;;
38591;SDS011;24356;48.460;11.450;2023-07-29T01:50:45;3.45;;;2.60;;
38591;SDS011;24356;48.460;11.450;2023-07-29T01:53:10;3.42;;;2.25;;
38591;SDS011;24356;48.460;11.450;2023-07-29T01:55:36;4.35;;;2.40;;
38591;SDS011;24356;48.460;11.450;2023-07-29T01:58:01;5.93;;;2.72;;
38591;SDS011;24356;48.460;11.450;2023-07-29T02:00:27;5.10;;;2.30;;
38591;SDS011;24356;48.460;11.450;2023-07-29T02:02:53;3.00;;;2.08;;
38591;SDS011;24356;48.460;11.450;2023-07-29T02:05:18;4.25;;;2.70;;
38591;SDS011;24356;48.460;11.450;2023-07-29T02:07:45;4.65;;;2.35;;
38591;SDS011;24356;48.460;11.450;2023-07-29T02:10:11;4.68;;;2.65;;
38591;SDS011;24356;48.460;11.450;2023-07-29T02:12:36;3.88;;;2.95;;
38591;SDS011;24356;48.460;11.450;2023-07-29T02:15:02;5.22;;;2.85;;
38591;SDS011;24356;48.460;11.450;2023-07-29T02:17:30;4.15;;;3.00;;
38591;SDS011;24356;48.460;11.450;2023-07-29T02:19:55;6.80;;;2.70;;
38591;SDS011;24356;48.460;11.450;2023-07-29T02:22:21;4.65;;;2.80;;
38591;SDS011;24356;48.460;11.450;2023-07-29T02:24:47;5.72;;;2.83;;
38591;SDS011;24356;48.460;11.450;2023-07-29T02:27:12;5.38;;;3.13;;
38591;SDS011;24356;48.460;11.450;2023-07-29T02:29:38;5.03;;;2.55;;
38591;SDS011;24356;48.460;11.450;2023-07-29T02:32:04;6.40;;;3.25;;
38591;SDS011;24356;48.460;11.450;2023-07-29T02:34:29;6.82;;;2.75;;
38591;SDS011;24356;48.460;11.450;2023-07-29T02:36:55;3.50;;;2.78;;
38591;SDS011;24356;48.460;11.450;2023-07-29T02:39:21;4.35;;;2.92;;
38591;SDS011;24356;48.460;11.450;2023-07-29T02:41:48;4.20;;;2.80;;
38591;SDS011;24356;48.460;11.450;2023-07-29T02:44:13;4.25;;;2.80;;
38591;SDS011;24356;48.460;11.450;2023-07-29T02:46:39;6.10;;;3.28;;
38591;SDS011;24356;48.460;11.450;2023-07-29T02:49:05;2.97;;;2.55;;
38591;SDS011;24356;48.460;11.450;2023-07-29T02:51:32;5.13;;;3.40;;
38591;SDS011;24356;48.460;11.450;2023-07-29T02:53:58;5.07;;;3.72;;
38591;SDS011;24356;48.460;11.450;2023-07-29T02:56:23;7.32;;;4.13;;
38591;SDS011;24356;48.460;11.450;2023-07-29T02:58:49;4.45;;;2.80;;
38591;SDS011;24356;48.460;11.450;2023-07-29T03:01:17;4.70;;;2.40;;
38591;SDS011;24356;48.460;11.450;2023-07-29T03:03:43;3.35;;;2.55;;
38591;SDS011;24356;48.460;11.450;2023-07-29T03:06:10;4.18;;;3.00;;
38591;SDS011;24356;48.460;11.450;2023-07-29T03:08:38;3.88;;;2.70;;
38591;SDS011;24356;48.460;11.450;2023-07-29T03:11:05;8.18;;;3.63;;
38591;SDS011;24356;48.460;11.450;2023-07-29T03:13:32;4.50;;;2.72;;
38591;SDS011;24356;48.460;11.450;2023-07-29T03:16:07;6.63;;;2.83;;
38591;SDS011;24356;48.460;11.450;2023-07-29T03:18:34;3.75;;;2.90;;
38591;SDS011;24356;48.460;11.450;2023-07-29T03:21:00;4.22;;;3.58;;
38591;SDS011;24356;48.460;11.450;2023-07-29T03:23:27;4.30;;;3.10;;
38591;SDS011;24356;48.460;11.450;2023-07-29T03:25:54;4.72;;;3.10;;
38591;SDS011;24356;48.460;11.450;2023-07-29T03:28:23;2.92;;;2.50;;
38591;SDS011;24356;48.460;11.450;2023-07-29T03:30:56;8.40;;;3.55;;
38591;SDS011;24356;48.460;11.450;2023-07-29T03:33:22;6.88;;;3.35;;
38591;SDS011;24356;48.460;11.450;2023-07-29T03:35:48;3.85;;;3.45;;
38591;SDS011;24356;48.460;11.450;2023-07-29T03:38:14;5.25;;;3.15;;
38591;SDS011;24356;48.460;11.450;2023-07-29T03:40:40;4.32;;;3.35;;
38591;SDS011;24356;48.460;11.450;2023-07-29T03:43:06;5.70;;;2.92;;
38591;SDS011;24356;48.460;11.450;2023-07-29T03:45:33;5.00;;;2.83;;
38591;SDS011;24356;48.460;11.450;2023-07-29T03:47:58;3.25;;;2.50;;
38591;SDS011;24356;48.460;11.450;2023-07-29T03:50:24;5.95;;;3.17;;
38591;SDS011;24356;48.460;11.450;2023-07-29T03:52:50;4.88;;;2.78;;
38591;SDS011;24356;48.460;11.450;2023-07-29T03:55:16;5.80;;;3.40;;
38591;SDS011;24356;48.460;11.450;2023-07-29T03:57:41;4.55;;;3.13;;
38591;SDS011;24356;48.460;11.450;2023-07-29T04:00:07;6.45;;;3.30;;
38591;SDS011;24356;48.460;11.450;2023-07-29T04:02:34;3.65;;;2.85;;
38591;SDS011;24356;48.460;11.450;2023-07-29T04:05:02;4.68;;;3.13;;
38591;SDS011;24356;48.460;11.450;2023-07-29T04:07:29;5.78;;;4.43;;
38591;SDS011;24356;48.460;11.450;2023-07-29T04:09:55;6.28;;;4.50;;
38591;SDS011;24356;48.460;11.450;2023-07-29T04:12:21;7.10;;;3.70;;
38591;SDS011;24356;48.460;11.450;2023-07-29T04:14:49;11.65;;;4.25;;
38591;SDS011;24356;48.460;11.450;2023-07-29T04:17:15;6.93;;;3.75;;
38591;SDS011;24356;48.460;11.450;2023-07-29T04:19:42;5.53;;;3.42;;
38591;SDS011;24356;48.460;11.450;2023-07-29T04:22:08;5.88;;;4.00;;
38591;SDS011;24356;48.460;11.450;2023-07-29T04:24:33;4.82;;;3.33;;
38591;SDS011;24356;48.460;11.450;2023-07-29T04:26:59;3.95;;;3.13;;
38591;SDS011;24356;48.460;11.450;2023-07-29T04:29:24;4.45;;;3.42;;
38591;SDS011;24356;48.460;11.450;2023-07-29T04:31:50;5.50;;;3.03;;
38591;SDS011;24356;48.460;11.450;2023-07-29T04:34:17;6.07;;;3.28;;
38591;SDS011;24356;48.460;11.450;2023-07-29T04:36:43;4.45;;;3.28;;
38591;SDS011;24356;48.460;11.450;2023-07-29T04:39:08;7.38;;;4.10;;
38591;SDS011;24356;48.460;11.450;2023-07-29T04:41:34;3.22;;;2.75;;
38591;SDS011;24356;48.460;11.450;2023-07-29T04:44:01;6.07;;;3.15;;
38591;SDS011;24356;48.460;11.450;2023-07-29T04:46:27;4.78;;;3.22;;
38591;SDS011;24356;48.460;11.450;2023-07-29T04:48:52;4.80;;;3.20;;
38591;SDS011;24356;48.460;11.450;2023-07-29T04:51:19;7.88;;;3.67;;
38591;SDS011;24356;48.460;11.450;2023-07-29T04:53:45;7.65;;;3.70;;
38591;SDS011;24356;48.460;11.450;2023-07-29T04:56:11;5.60;;;3.85;;
38591;SDS011;24356;48.460;11.450;2023-07-29T04:58:36;5.65;;;3.58;;
38591;SDS011;24356;48.460;11.450;2023-07-29T05:01:02;5.93;;;2.90;;
38591;SDS011;24356;48.460;11.450;2023-07-29T05:08:39;7.97;;;5.03;;
38591;SDS011;24356;48.460;11.450;2023-07-29T05:11:05;10.73;;;5.30;;
38591;SDS011;24356;48.460;11.450;2023-07-29T05:13:33;7.68;;;4.68;;
38591;SDS011;24356;48.460;11.450;2023-07-29T05:32:59;9.15;;;4.25;;
38591;SDS011;24356;48.460;11.450;2023-07-29T05:35:25;7.65;;;4.35;;
38591;SDS011;24356;48.460;11.450;2023-07-29T05:37:58;6.47;;;4.43;;
38591;SDS011;24356;48.460;11.450;2023-07-29T05:40:28;7.30;;;4.10;;
38591;SDS011;24356;48.460;11.450;2023-07-29T05:42:53;10.43;;;4.13;;
38591;SDS011;24356;48.460;11.450;2023-07-29T05:45:21;6.63;;;3.90;;
38591;SDS011;24356;48.460;11.450;2023-07-29T05:47:57;5.65;;;3.70;;
38591;SDS011;24356;48.460;11.450;2023-07-29T05:50:25;5.03;;;3.83;;
38591;SDS011;24356;48.460;11.450;2023-07-29T05:52:58;5.85;;;3.50;;
38591;SDS011;24356;48.460;11.450;2023-07-29T05:55:24;5.35;;;3.55;;
38591;SDS011;24356;48.460;11.450;2023-07-29T05:57:49;5.63;;;3.78;;
38591;SDS011;24356;48.460;11.450;2023-07-29T06:00:15;5.13;;;3.50;;
38591;SDS011;24356;48.460;11.450;2023-07-29T06:02:40;4.40;;;3.35;;
38591;SDS011;24356;48.460;11.450;2023-07-29T06:05:06;5.63;;;3.80;;
38591;SDS011;24356;48.460;11.450;2023-07-29T06:07:32;6.75;;;3.45;;
38591;SDS011;24356;48.460;11.450;2023-07-29T06:09:59;5.43;;;3.30;;
38591;SDS011;24356;48.460;11.450;2023-07-29T06:12:24;6.05;;;4.10;;
38591;SDS011;24356;48.460;11.450;2023-07-29T06:14:50;7.55;;;3.55;;
38591;SDS011;24356;48.460;11.450;2023-07-29T06:17:16;4.32;;;3.53;;
38591;SDS011;24356;48.460;11.450;2023-07-29T06:19:41;6.07;;;3.20;;
38591;SDS011;24356;48.460;11.450;2023-07-29T06:22:07;6.45;;;3.15;;
38591;SDS011;24356;48.460;11.450;2023-07-29T06:24:32;6.00;;;3.17;;
38591;SDS011;24356;48.460;11.450;2023-07-29T06:26:58;8.60;;;3.65;;
38591;SDS011;24356;48.460;11.450;2023-07-29T06:29:24;3.95;;;3.13;;
38591;SDS011;24356;48.460;11.450;2023-07-29T06:31:49;5.75;;;2.78;;
38591;SDS011;24356;48.460;11.450;2023-07-29T06:34:16;6.20;;;3.13;;
38591;SDS011;24356;48.460;11.450;2023-07-29T06:36:42;4.82;;;3.05;;
38591;SDS011;24356;48.460;11.450;2023-07-29T06:39:09;4.93;;;3.10;;
38591;SDS011;24356;48.460;11.450;2023-07-29T06:41:34;5.25;;;2.70;;
38591;SDS011;24356;48.460;11.450;2023-07-29T06:44:00;3.58;;;2.72;;
38591;SDS011;24356;48.460;11.450;2023-07-29T06:46:26;3.90;;;2.55;;
38591;SDS011;24356;48.460;11.450;2023-07-29T06:48:51;5.68;;;2.85;;
38591;SDS011;24356;48.460;11.450;2023-07-29T06:51:17;5.00;;;2.83;;
38591;SDS011;24356;48.460;11.450;2023-07-29T06:53:42;5.93;;;2.58;;
38591;SDS011;24356;48.460;11.450;2023-07-29T06:56:08;4.65;;;2.63;;
38591;SDS011;24356;48.460;11.450;2023-07-29T06:58:34;4.47;;;2.85;;
38591;SDS011;24356;48.460;11.450;2023-07-29T07:01:00;3.35;;;2.33;;
38591;SDS011;24356;48.460;11.450;2023-07-29T07:03:26;3.67;;;3.00;;
38591;SDS011;24356;48.460;11.450;2023-07-29T07:05:51;3.53;;;2.58;;
38591;SDS011;24356;48.460;11.450;2023-07-29T07:08:17;3.60;;;2.35;;
38591;SDS011;24356;48.460;11.450;2023-07-29T07:10:42;3.17;;;2.63;;
38591;SDS011;24356;48.460;11.450;2023-07-29T07:13:08;3.45;;;2.50;;
38591;SDS011;24356;48.460;11.450;2023-07-29T07:15:33;5.88;;;3.00;;
38591;SDS011;24356;48.460;11.450;2023-07-29T07:18:06;7.25;;;2.65;;
38591;SDS011;24356;48.460;11.450;2023-07-29T07:20:37;9.23;;;2.83;;
38591;SDS011;24356;48.460;11.450;2023-07-29T07:23:07;9.10;;;2.75;;
38591;SDS011;24356;48.460;11.450;2023-07-29T07:25:37;4.13;;;2.70;;
38591;SDS011;24356;48.460;11.450;2023-07-29T07:28:10;4.70;;;2.80;;
38591;SDS011;24356;48.460;11.450;2023-07-29T07:30:41;6.70;;;3.08;;
38591;SDS011;24356;48.460;11.450;2023-07-29T07:33:09;6.22;;;3.13;;
38591;SDS011;24356;48.460;11.450;2023-07-29T07:35:42;6.35;;;3.05;;
38591;SDS011;24356;48.460;11.450;2023-07-29T07:38:10;3.28;;;2.88;;
38591;SDS011;24356;48.460;11.450;2023-07-29T07:44:21;5.57;;;3.47;;
38591;SDS011;24356;48.460;11.450;2023-07-29T07:57:25;5.68;;;3.15;;
38591;SDS011;24356;48.460;11.450;2023-07-29T07:59:52;6.53;;;3.60;;
38591;SDS011;24356;48.460;11.450;2023-07-29T08:02:18;6.85;;;3.22;;
38591;SDS011;24356;48.460;11.450;2023-07-29T08:04:43;4.47;;;3.03;;
38591;SDS011;24356;48.460;11.450;2023-07-29T08:07:09;5.55;;;3.03;;
38591;SDS011;24356;48.460;11.450;2023-07-29T08:09:35;3.53;;;2.80;;
38591;SDS011;24356;48.460;11.450;2023-07-29T08:12:01;5.80;;;3.60;;
38591;SDS011;24356;48.460;11.450;2023-07-29T08:14:27;5.88;;;3.17;;
38591;SDS011;24356;48.460;11.450;2023-07-29T08:16:52;5.53;;;2.75;;
38591;SDS011;24356;48.460;11.450;2023-07-29T08:19:18;3.58;;;2.50;;
38591;SDS011;24356;48.460;11.450;2023-07-29T08:21:43;3.42;;;2.72;;
38591;SDS011;24356;48.460;11.450;2023-07-29T08:24:09;3.70;;;2.72;;
38591;SDS011;24356;48.460;11.450;2023-07-29T08:26:34;4.15;;;2.60;;
38591;SDS011;24356;48.460;11.450;2023-07-29T08:29:00;7.25;;;2.70;;
38591;SDS011;24356;48.460;11.450;2023-07-29T08:31:29;3.42;;;2.65;;
38591;SDS011;24356;48.460;11.450;2023-07-29T08:33:58;5.13;;;2.90;;
38591;SDS011;24356;48.460;11.450;2023-07-29T08:36:24;4.25;;;3.00;;
38591;SDS011;24356;48.460;11.450;2023-07-29T08:38:49;4.47;;;2.92;;
38591;SDS011;24356;48.460;11.450;2023-07-29T08:41:41;3.55;;;2.88;;
38591;SDS011;24356;48.460;11.450;2023-07-29T08:44:22;4.63;;;2.80;;
38591;SDS011;24356;48.460;11.450;2023-07-29T08:46:51;4.45;;;2.88;;
38591;SDS011;24356;48.460;11.450;2023-07-29T08:49:18;3.17;;;2.60;;
38591;SDS011;24356;48.460;11.450;2023-07-29T08:51:48;3.53;;;2.55;;
38591;SDS011;24356;48.460;11.450;2023-07-29T08:54:14;3.55;;;2.88;;
38591;SDS011;24356;48.460;11.450;2023-07-29T08:56:41;3.55;;;2.97;;
38591;SDS011;24356;48.460;11.450;2023-07-29T08:59:10;4.47;;;2.60;;
38591;SDS011;24356;48.460;11.450;2023-07-29T09:01:40;5.75;;;2.67;;
38591;SDS011;24356;48.460;11.450;2023-07-29T09:04:08;3.00;;;2.60;;
38591;SDS011;24356;48.460;11.450;2023-07-29T09:06:34;5.28;;;3.05;;
38591;SDS011;24356;48.460;11.450;2023-07-29T09:09:01;4.97;;;2.50;;
38591;SDS011;24356;48.460;11.450;2023-07-29T09:11:27;4.38;;;2.65;;
38591;SDS011;24356;48.460;11.450;2023-07-29T09:13:57;5.60;;;2.80;;
38591;SDS011;24356;48.460;11.450;2023-07-29T09:16:22;11.93;;;2.97;;
38591;SDS011;24356;48.460;11.450;2023-07-29T09:18:49;5.28;;;2.83;;
38591;SDS011;24356;48.460;11.450;2023-07-29T09:21:16;4.30;;;2.80;;
38591;SDS011;24356;48.460;11.450;2023-07-29T09:23:53;5.32;;;3.03;;
38591;SDS011;24356;48.460;11.450;2023-07-29T09:26:23;3.88;;;2.80;;
38591;SDS011;24356;48.460;11.450;2023-07-29T09:28:51;4.60;;;2.88;;
38591;SDS011;24356;48.460;11.450;2023-07-29T09:31:19;3.90;;;2.63;;
38591;SDS011;24356;48.460;11.450;2023-07-29T09:33:46;3.15;;;2.47;;
38591;SDS011;24356;48.460;11.450;2023-07-29T09:36:12;3.08;;;2.78;;
38591;SDS011;24356;48.460;11.450;2023-07-29T09:38:37;4.65;;;2.80;;
38591;SDS011;24356;48.460;11.450;2023-07-29T09:41:04;6.00;;;3.00;;
38591;SDS011;24356;48.460;11.450;2023-07-29T09:43:30;3.00;;;2.53;;
38591;SDS011;24356;48.460;11.450;2023-07-29T09:46:00;4.93;;;2.70;;
38591;SDS011;24356;48.460;11.450;2023-07-29T09:48:36;4.43;;;2.78;;
38591;SDS011;24356;48.460;11.450;2023-07-29T09:51:13;5.25;;;3.10;;
38591;SDS011;24356;48.460;11.450;2023-07-29T09:53:43;6.05;;;2.70;;
38591;SDS011;24356;48.460;11.450;2023-07-29T09:56:10;3.33;;;2.55;;
38591;SDS011;24356;48.460;11.450;2023-07-29T09:58:37;4.70;;;2.72;;
38591;SDS011;24356;48.460;11.450;2023-07-29T10:01:06;4.53;;;2.70;;
38591;SDS011;24356;48.460;11.450;2023-07-29T10:03:33;4.78;;;2.70;;
38591;SDS011;24356;48.460;11.450;2023-07-29T10:06:04;3.58;;;2.85;;
38591;SDS011;24356;48.460;11.450;2023-07-29T10:08:30;4.38;;;2.85;;
38591;SDS011;24356;48.460;11.450;2023-07-29T10:11:06;4.20;;;2.60;;
38591;SDS011;24356;48.460;11.450;2023-07-29T10:13:33;4.72;;;2.90;;
38591;SDS011;24356;48.460;11.450;2023-07-29T10:16:00;4.90;;;2.40;;
38591;SDS011;24356;48.460;11.450;2023-07-29T10:18:29;3.42;;;2.80;;
38591;SDS011;24356;48.460;11.450;2023-07-29T10:20:56;10.30;;;3.10;;
38591;SDS011;24356;48.460;11.450;2023-07-29T10:23:24;12.90;;;2.88;;
38591;SDS011;24356;48.460;11.450;2023-07-29T10:26:03;6.43;;;2.22;;
38591;SDS011;24356;48.460;11.450;2023-07-29T10:28:32;10.68;;;2.50;;
38591;SDS011;24356;48.460;11.450;2023-07-29T10:31:01;4.57;;;2.08;;
38591;SDS011;24356;48.460;11.450;2023-07-29T10:33:29;5.68;;;2.47;;
38591;SDS011;24356;48.460;11.450;2023-07-29T10:35:58;7.25;;;2.33;;
38591;SDS011;24356;48.460;11.450;2023-07-29T10:38:24;4.68;;;2.50;;
38591;SDS011;24356;48.460;11.450;2023-07-29T10:43:27;4.07;;;2.63;;
38591;SDS011;24356;48.460;11.450;2023-07-29T10:45:57;5.05;;;2.40;;
38591;SDS011;24356;48.460;11.450;2023-07-29T10:48:44;8.05;;;2.60;;
38591;SDS011;24356;48.460;11.450;2023-07-29T10:54:13;9.10;;;3.08;;
38591;SDS011;24356;48.460;11.450;2023-07-29T10:56:46;7.88;;;3.33;;
38591;SDS011;24356;48.460;11.450;2023-07-29T11:01:57;8.70;;;2.97;;
38591;SDS011;24356;48.460;11.450;2023-07-29T11:12:34;6.07;;;3.88;;
38591;SDS011;24356;48.460;11.450;2023-07-29T11:15:04;4.30;;;3.33;;
38591;SDS011;24356;48.460;11.450;2023-07-29T11:17:51;5.25;;;3.40;;
38591;SDS011;24356;48.460;11.450;2023-07-29T11:20:28;6.05;;;4.20;;
38591;SDS011;24356;48.460;11.450;2023-07-29T11:22:55;5.53;;;3.63;;
38591;SDS011;24356;48.460;11.450;2023-07-29T11:25:22;5.60;;;3.80;;
38591;SDS011;24356;48.460;11.450;2023-07-29T11:27:49;4.65;;;3.58;;
38591;SDS011;24356;48.460;11.450;2023-07-29T11:30:18;4.50;;;3.40;;
38591;SDS011;24356;48.460;11.450;2023-07-29T11:32:45;6.63;;;3.83;;
38591;SDS011;24356;48.460;11.450;2023-07-29T11:35:12;5.28;;;4.20;;
38591;SDS011;24356;48.460;11.450;2023-07-29T11:37:44;7.22;;;4.30;;
38591;SDS011;24356;48.460;11.450;2023-07-29T11:40:18;7.10;;;4.00;;
38591;SDS011;24356;48.460;11.450;2023-07-29T11:42:45;9.07;;;4.40;;
38591;SDS011;24356;48.460;11.450;2023-07-29T11:45:12;5.55;;;4.10;;
38591;SDS011;24356;48.460;11.450;2023-07-29T11:47:39;7.53;;;4.50;;
38591;SDS011;24356;48.460;11.450;2023-07-29T11:50:05;7.35;;;4.25;;
38591;SDS011;24356;48.460;11.450;2023-07-29T11:52:41;4.45;;;3.47;;
38591;SDS011;24356;48.460;11.450;2023-07-29T11:55:08;4.93;;;3.30;;
38591;SDS011;24356;48.460;11.450;2023-07-29T11:57:36;4.68;;;3.08;;
38591;SDS011;24356;48.460;11.450;2023-07-29T12:00:03;6.57;;;3.05;;
38591;SDS011;24356;48.460;11.450;2023-07-29T12:02:38;4.70;;;2.75;;
38591;SDS011;24356;48.460;11.450;2023-07-29T12:05:06;3.28;;;2.65;;
38591;SDS011;24356;48.460;11.450;2023-07-29T12:07:34;3.53;;;2.70;;
38591;SDS011;24356;48.460;11.450;2023-07-29T12:10:00;4.22;;;2.65;;
38591;SDS011;24356;48.460;11.450;2023-07-29T12:12:28;6.13;;;2.90;;
38591;SDS011;24356;48.460;11.450;2023-07-29T12:14:54;5.63;;;2.90;;
38591;SDS011;24356;48.460;11.450;2023-07-29T12:17:20;2.80;;;2.47;;
38591;SDS011;24356;48.460;11.450;2023-07-29T12:19:45;6.43;;;2.80;;
38591;SDS011;24356;48.460;11.450;2023-07-29T12:22:11;4.82;;;2.80;;
38591;SDS011;24356;48.460;11.450;2023-07-29T12:24:38;5.28;;;2.60;;
38591;SDS011;24356;48.460;11.450;2023-07-29T12:27:05;4.05;;;2.63;;
38591;SDS011;24356;48.460;11.450;2023-07-29T12:29:39;4.72;;;2.90;;
38591;SDS011;24356;48.460;11.450;2023-07-29T12:32:06;5.47;;;2.90;;
38591;SDS011;24356;48.460;11.450;2023-07-29T12:34:34;4.70;;;2.60;;
38591;SDS011;24356;48.460;11.450;2023-07-29T12:37:02;3.50;;;2.40;;
38591;SDS011;24356;48.460;11.450;2023-07-29T12:39:29;3.53;;;2.70;;
38591;SDS011;24356;48.460;11.450;2023-07-29T12:41:58;4.95;;;3.20;;
38591;SDS011;24356;48.460;11.450;2023-07-29T12:44:24;4.88;;;2.75;;
38591;SDS011;24356;48.460;11.450;2023-07-29T12:46:52;4.63;;;2.55;;
38591;SDS011;24356;48.460;11.450;2023-07-29T12:49:17;3.72;;;2.70;;
38591;SDS011;24356;48.460;11.450;2023-07-29T12:51:43;4.93;;;2.60;;
38591;SDS011;24356;48.460;11.450;2023-07-29T12:54:09;5.18;;;2.53;;
38591;SDS011;24356;48.460;11.450;2023-07-29T12:56:35;4.63;;;2.38;;
38591;SDS011;24356;48.460;11.450;2023-07-29T12:59:01;2.50;;;2.25;;
38591;SDS011;24356;48.460;11.450;2023-07-29T13:01:27;2.92;;;2.20;;
38591;SDS011;24356;48.460;11.450;2023-07-29T13:03:53;2.45;;;1.90;;
38591;SDS011;24356;48.460;11.450;2023-07-29T13:06:19;4.05;;;2.17;;
38591;SDS011;24356;48.460;11.450;2023-07-29T13:08:45;2.90;;;2.10;;
38591;SDS011;24356;48.460;11.450;2023-07-29T13:11:11;2.35;;;2.00;;
38591;SDS011;24356;48.460;11.450;2023-07-29T13:13:37;1.95;;;1.80;;
38591;SDS011;24356;48.460;11.450;2023-07-29T13:16:03;4.55;;;1.85;;
38591;SDS011;24356;48.460;11.450;2023-07-29T13:18:28;2.70;;;2.00;;
38591;SDS011;24356;48.460;11.450;2023-07-29T13:20:54;3.25;;;1.90;;
38591;SDS011;24356;48.460;11.450;2023-07-29T13:23:20;4.55;;;2.10;;
38591;SDS011;24356;48.460;11.450;2023-07-29T13:25:46;2.03;;;1.83;;
38591;SDS011;24356;48.460;11.450;2023-07-29T13:28:12;2.45;;;2.00;;
38591;SDS011;24356;48.460;11.450;2023-07-29T13:30:38;2.20;;;2.00;;
38591;SDS011;24356;48.460;11.450;2023-07-29T13:33:05;3.13;;;1.90;;
38591;SDS011;24356;48.460;11.450;2023-07-29T13:35:32;3.40;;;2.00;;
38591;SDS011;24356;48.460;11.450;2023-07-29T13:37:58;3.33;;;1.90;;
38591;SDS011;24356;48.460;11.450;2023-07-29T13:40:24;4.95;;;2.03;;
38591;SDS011;24356;48.460;11.450;2023-07-29T13:42:50;3.72;;;1.92;;
38591;SDS011;24356;48.460;11.450;2023-07-29T13:45:16;5.50;;;2.10;;
38591;SDS011;24356;48.460;11.450;2023-07-29T13:47:43;5.28;;;1.98;;
38591;SDS011;24356;48.460;11.450;2023-07-29T13:50:10;5.50;;;2.40;;
38591;SDS011;24356;48.460;11.450;2023-07-29T13:52:37;8.50;;;2.63;;
38591;SDS011;24356;48.460;11.450;2023-07-29T13:55:03;10.23;;;2.75;;
38591;SDS011;24356;48.460;11.450;2023-07-29T13:57:29;10.82;;;2.65;;
38591;SDS011;24356;48.460;11.450;2023-07-29T13:59:55;10.15;;;2.45;;
38591;SDS011;24356;48.460;11.450;2023-07-29T14:02:21;9.95;;;2.90;;
38591;SDS011;24356;48.460;11.450;2023-07-29T14:04:46;6.50;;;2.38;;
38591;SDS011;24356;48.460;11.450;2023-07-29T14:07:12;5.82;;;2.70;;
38591;SDS011;24356;48.460;11.450;2023-07-29T14:09:37;6.22;;;2.58;;
38591;SDS011;24356;48.460;11.450;2023-07-29T14:12:03;8.85;;;2.30;;
38591;SDS011;24356;48.460;11.450;2023-07-29T14:14:30;6.97;;;2.53;;
38591;SDS011;24356;48.460;11.450;2023-07-29T14:16:56;4.65;;;2.50;;
38591;SDS011;24356;48.460;11.450;2023-07-29T14:19:22;6.07;;;2.63;;
38591;SDS011;24356;48.460;11.450;2023-07-29T14:21:48;5.97;;;2.28;;
38591;SDS011;24356;48.460;11.450;2023-07-29T14:24:14;4.90;;;2.38;;
38591;SDS011;24356;48.460;11.450;2023-07-29T14:26:40;5.85;;;2.53;;
38591;SDS011;24356;48.460;11.450;2023-07-29T14:29:06;4.05;;;2.53;;
38591;SDS011;24356;48.460;11.450;2023-07-29T14:31:32;4.05;;;2.30;;
38591;SDS011;24356;48.460;11.450;2023-07-29T14:33:57;3.33;;;2.28;;
38591;SDS011;24356;48.460;11.450;2023-07-29T14:36:24;3.80;;;2.65;;
38591;SDS011;24356;48.460;11.450;2023-07-29T14:38:50;6.20;;;2.30;;
38591;SDS011;24356;48.460;11.450;2023-07-29T14:41:16;5.65;;;2.33;;
38591;SDS011;24356;48.460;11.450;2023-07-29T14:43:42;3.38;;;2.33;;
38591;SDS011;24356;48.460;11.450;2023-07-29T14:46:07;2.83;;;2.35;;
38591;SDS011;24356;48.460;11.450;2023-07-29T14:48:33;4.32;;;2.50;;
38591;SDS011;24356;48.460;11.450;2023-07-29T14:50:59;3.85;;;2.22;;
38591;SDS011;24356;48.460;11.450;2023-07-29T14:53:24;3.33;;;2.20;;
38591;SDS011;24356;48.460;11.450;2023-07-29T14:55:50;4.45;;;2.05;;
38591;SDS011;24356;48.460;11.450;2023-07-29T14:58:16;3.72;;;2.53;;
38591;SDS011;24356;48.460;11.450;2023-07-29T15:00:42;3.25;;;2.28;;
38591;SDS011;24356;48.460;11.450;2023-07-29T15:03:07;4.47;;;2.28;;
38591;SDS011;24356;48.460;11.450;2023-07-29T15:05:33;3.40;;;1.92;;
38591;SDS011;24356;48.460;11.450;2023-07-29T15:07:58;3.42;;;2.10;;
38591;SDS011;24356;48.460;11.450;2023-07-29T15:10:24;6.50;;;2.30;;
38591;SDS011;24356;48.460;11.450;2023-07-29T15:12:50;2.97;;;1.90;;
38591;SDS011;24356;48.460;11.450;2023-07-29T15:15:16;4.28;;;1.90;;
38591;SDS011;24356;48.460;11.450;2023-07-29T15:17:42;7.63;;;2.28;;
38591;SDS011;24356;48.460;11.450;2023-07-29T15:20:08;3.47;;;2.40;;
38591;SDS011;24356;48.460;11.450;2023-07-29T15:22:34;2.50;;;1.88;;
38591;SDS011;24356;48.460;11.450;2023-07-29T15:24:59;2.03;;;1.83;;
38591;SDS011;24356;48.460;11.450;2023-07-29T15:27:26;2.38;;;1.80;;
38591;SDS011;24356;48.460;11.450;2023-07-29T15:29:53;4.20;;;2.03;;
38591;SDS011;24356;48.460;11.450;2023-07-29T15:32:19;4.25;;;1.60;;
38591;SDS011;24356;48.460;11.450;2023-07-29T15:34:45;3.90;;;1.90;;
38591;SDS011;24356;48.460;11.450;2023-07-29T15:37:11;2.17;;;1.75;;